Time;durP1;ratioP1;P1;durP2;ratioP2;P2;SDS_P1;SDS_P2;PMS_P1;PMS_P2;Temp;Humidity;BMP_temperature;BMP_pressure;BME280_temperature;BME280_humidity;BME280_pressure;Samples;Min_cycle;Max_cycle;Signal;HPM_P1;HPM_P2
2022/06/26 00:01:13;;;;;;;9.05;1.85;;;16.70;99.90;;;;;;5091765;28;20031;-78
2022/06/26 00:03:38;;;;;;;7.85;2.17;;;16.80;99.90;;;;;;5092370;28;20009;-78
2022/06/26 00:06:04;;;;;;;8.10;1.50;;;16.70;99.90;;;;;;5091901;28;20381;-78
2022/06/26 00:08:30;;;;;;;4.85;1.40;;;16.70;99.90;;;;;;5092150;28;20073;-79
2022/06/26 00:10:55;;;;;;;7.90;1.77;;;16.60;99.90;;;;;;5090877;28;20017;-78
2022/06/26 00:13:21;;;;;;;8.23;1.48;;;16.60;99.90;;;;;;5091632;28;20023;-78
2022/06/26 00:15:47;;;;;;;12.15;2.08;;;16.50;99.90;;;;;;5091569;28;20392;-78
2022/06/26 00:18:13;;;;;;;10.05;1.38;;;16.40;99.90;;;;;;5091898;28;20448;-78
2022/06/26 00:20:40;;;;;;;6.35;1.38;;;16.60;99.90;;;;;;5091572;28;20462;-78
2022/06/26 00:23:06;;;;;;;6.85;1.75;;;16.60;99.90;;;;;;5091704;28;20071;-78
2022/06/26 00:25:32;;;;;;;6.00;1.55;;;16.70;99.90;;;;;;5091588;28;20465;-79
2022/06/26 00:27:58;;;;;;;10.55;2.13;;;16.70;99.90;;;;;;5091816;28;20020;-78
2022/06/26 00:30:23;;;;;;;8.68;1.90;;;16.70;99.90;;;;;;5091470;28;20436;-78
2022/06/26 00:32:52;;;;;;;6.18;1.33;;;16.70;99.90;;;;;;5091366;28;20141;-79
2022/06/26 00:35:18;;;;;;;5.38;1.40;;;16.80;99.90;;;;;;5091517;28;20051;-79
2022/06/26 00:37:43;;;;;;;11.05;1.50;;;16.80;99.90;;;;;;5091334;28;20504;-79
2022/06/26 00:40:09;;;;;;;3.63;1.55;;;16.90;99.90;;;;;;5091123;28;20050;-78
2022/06/26 00:42:36;;;;;;;5.88;1.33;;;16.80;99.90;;;;;;5091444;28;20020;-78
2022/06/26 00:45:03;;;;;;;8.23;1.70;;;16.80;99.90;;;;;;5091008;28;20042;-79
2022/06/26 00:47:30;;;;;;;8.93;1.60;;;16.70;99.90;;;;;;5089790;28;20024;-78
2022/06/26 00:49:56;;;;;;;9.43;1.70;;;16.80;99.90;;;;;;5091097;28;20020;-78
2022/06/26 00:52:23;;;;;;;8.95;1.70;;;16.90;99.90;;;;;;5091056;28;20399;-78
2022/06/26 00:54:50;;;;;;;9.25;2.15;;;16.80;99.90;;;;;;5090712;28;20069;-78
2022/06/26 00:57:17;;;;;;;8.77;1.75;;;16.90;99.90;;;;;;5084480;28;20027;-78
2022/06/26 00:59:42;;;;;;;7.90;1.70;;;16.90;99.90;;;;;;5085639;28;20085;-78
2022/06/26 01:02:08;;;;;;;9.13;1.55;;;16.90;99.90;;;;;;5090760;28;20016;-78
2022/06/26 01:04:34;;;;;;;7.10;1.27;;;16.90;99.90;;;;;;5089513;28;20032;-79
2022/06/26 01:07:00;;;;;;;8.80;1.60;;;17.00;99.90;;;;;;5090837;28;20024;-78
2022/06/26 01:09:26;;;;;;;6.75;1.50;;;17.00;99.90;;;;;;5091020;28;20024;-78
2022/06/26 01:11:51;;;;;;;9.23;1.52;;;17.00;99.90;;;;;;5090655;28;20024;-79
2022/06/26 01:14:17;;;;;;;7.60;1.77;;;17.00;99.90;;;;;;5090654;28;20495;-78
2022/06/26 01:16:43;;;;;;;8.70;1.55;;;16.90;99.90;;;;;;5090180;28;20024;-79
2022/06/26 01:19:10;;;;;;;8.68;1.60;;;16.90;99.90;;;;;;5090589;28;20484;-78
2022/06/26 01:21:37;;;;;;;8.68;1.80;;;16.80;99.90;;;;;;5090565;28;20043;-79
2022/06/26 01:24:03;;;;;;;10.13;1.85;;;16.80;99.90;;;;;;5090367;28;20024;-79
2022/06/26 01:26:30;;;;;;;9.82;1.58;;;16.70;99.90;;;;;;5089301;28;20442;-78
2022/06/26 01:28:56;;;;;;;8.15;1.92;;;16.80;99.90;;;;;;5090568;28;20085;-78
2022/06/26 01:31:22;;;;;;;12.68;1.67;;;16.70;99.90;;;;;;5090308;28;20103;-78
2022/06/26 01:33:49;;;;;;;6.65;1.60;;;16.70;99.90;;;;;;5090561;28;20024;-79
2022/06/26 01:36:15;;;;;;;10.02;1.83;;;16.70;99.90;;;;;;5090209;28;20024;-78
2022/06/26 01:38:42;;;;;;;10.98;1.95;;;16.60;99.90;;;;;;5090437;28;20020;-79
2022/06/26 01:41:08;;;;;;;8.02;1.65;;;16.60;99.90;;;;;;5090049;28;20028;-79
2022/06/26 01:43:37;;;;;;;11.88;1.83;;;16.50;99.90;;;;;;5090362;28;20484;-79
2022/06/26 01:46:04;;;;;;;5.85;1.35;;;16.40;99.90;;;;;;5090037;28;20040;-78
2022/06/26 01:48:33;;;;;;;11.52;1.90;;;16.30;99.90;;;;;;5090324;28;20502;-78
2022/06/26 01:51:00;;;;;;;11.75;2.20;;;16.20;99.90;;;;;;5090877;28;20032;-79
2022/06/26 01:53:27;;;;;;;13.00;2.45;;;16.10;99.90;;;;;;5089946;28;20012;-79
2022/06/26 01:55:52;;;;;;;10.48;2.03;;;16.00;99.90;;;;;;5089995;28;20052;-79
2022/06/26 01:58:18;;;;;;;9.60;1.98;;;15.90;99.90;;;;;;5090042;28;20260;-79
2022/06/26 02:00:45;;;;;;;8.30;2.10;;;15.90;99.90;;;;;;5090142;28;20063;-78
2022/06/26 02:03:13;;;;;;;10.35;1.88;;;15.80;99.90;;;;;;5089910;28;20016;-79
2022/06/26 02:05:39;;;;;;;11.10;1.70;;;15.80;99.90;;;;;;5090557;28;20067;-78
2022/06/26 02:08:05;;;;;;;7.63;1.70;;;15.70;99.90;;;;;;5090020;28;20105;-78
2022/06/26 02:16:02;;;;;;;9.00;1.80;;;15.60;99.90;;;;;;5089862;28;20024;-78
2022/06/26 02:18:28;;;;;;;9.65;1.75;;;15.50;99.90;;;;;;5089943;28;20427;-78
2022/06/26 02:20:55;;;;;;;11.95;1.95;;;15.60;99.90;;;;;;5088260;28;20496;-78
2022/06/26 02:23:21;;;;;;;7.53;1.88;;;15.60;99.90;;;;;;5089831;28;20500;-79
2022/06/26 02:25:47;;;;;;;8.35;1.95;;;15.60;99.90;;;;;;5089884;28;20080;-79
2022/06/26 02:28:13;;;;;;;8.23;1.90;;;15.50;99.90;;;;;;5092379;28;20020;-78
2022/06/26 02:30:38;;;;;;;5.80;2.00;;;15.50;99.90;;;;;;5093840;28;20020;-78
2022/06/26 02:33:05;;;;;;;11.18;2.53;;;15.50;99.90;;;;;;5093712;28;20039;-79
2022/06/26 02:35:31;;;;;;;7.38;1.75;;;15.50;99.90;;;;;;5093873;28;20031;-78
2022/06/26 02:37:57;;;;;;;6.70;1.77;;;15.40;99.90;;;;;;5093568;28;20028;-78
2022/06/26 02:40:28;;;;;;;8.43;2.33;;;15.40;99.90;;;;;;5093985;28;20024;-78
2022/06/26 02:42:55;;;;;;;10.23;2.15;;;15.40;99.90;;;;;;5093553;28;20403;-79
2022/06/26 02:45:21;;;;;;;5.72;2.03;;;15.40;99.90;;;;;;5093314;28;20040;-79
2022/06/26 02:47:47;;;;;;;6.07;1.63;;;15.30;99.90;;;;;;5093410;28;20441;-79
2022/06/26 02:50:13;;;;;;;5.57;1.52;;;15.30;99.90;;;;;;5093587;28;20099;-78
2022/06/26 02:52:39;;;;;;;11.85;1.98;;;15.30;99.90;;;;;;5093725;28;20457;-78
2022/06/26 02:55:06;;;;;;;8.13;1.90;;;15.30;99.90;;;;;;5093223;28;20117;-79
2022/06/26 02:57:32;;;;;;;5.85;1.80;;;15.20;99.90;;;;;;5093426;28;20046;-78
2022/06/26 02:59:57;;;;;;;9.88;2.10;;;15.20;99.90;;;;;;5092941;28;20024;-78
2022/06/26 03:02:24;;;;;;;9.77;2.40;;;15.20;99.90;;;;;;5093200;28;20484;-79
2022/06/26 03:04:51;;;;;;;6.30;2.05;;;15.20;99.90;;;;;;5092903;28;20103;-78
2022/06/26 03:07:17;;;;;;;5.78;2.03;;;15.20;99.90;;;;;;5093216;28;20070;-78
2022/06/26 03:09:43;;;;;;;7.82;1.98;;;15.20;99.90;;;;;;5093275;28;20020;-79
2022/06/26 03:12:09;;;;;;;8.20;1.83;;;15.20;99.90;;;;;;5093056;28;20025;-78
2022/06/26 03:14:35;;;;;;;4.80;1.60;;;15.20;99.90;;;;;;5093165;28;20468;-78
2022/06/26 03:17:01;;;;;;;6.43;1.83;;;15.20;99.90;;;;;;5092976;28;20028;-79
2022/06/26 03:19:27;;;;;;;6.80;1.92;;;15.10;99.90;;;;;;5092877;28;20511;-78
2022/06/26 03:21:53;;;;;;;8.20;2.00;;;15.10;99.90;;;;;;5092724;28;20055;-78
2022/06/26 03:24:19;;;;;;;10.93;2.55;;;15.10;99.90;;;;;;5092685;28;20028;-78
2022/06/26 03:26:45;;;;;;;6.22;2.00;;;15.10;99.90;;;;;;5092763;28;20036;-78
2022/06/26 03:29:11;;;;;;;5.80;1.92;;;15.00;99.90;;;;;;5092883;28;20025;-78
2022/06/26 03:31:37;;;;;;;5.85;1.92;;;15.00;99.90;;;;;;5092686;28;20122;-78
2022/06/26 03:34:04;;;;;;;8.43;2.10;;;15.00;99.90;;;;;;5092733;28;20020;-78
2022/06/26 03:36:30;;;;;;;9.05;1.90;;;15.00;99.90;;;;;;5092495;28;20032;-79
2022/06/26 03:38:56;;;;;;;7.80;2.33;;;15.00;99.90;;;;;;5090830;28;20024;-78
2022/06/26 03:41:22;;;;;;;5.75;1.60;;;15.00;99.90;;;;;;5091011;28;20093;-78
2022/06/26 03:43:48;;;;;;;7.55;2.42;;;15.00;99.90;;;;;;5092430;28;20134;-78
2022/06/26 03:46:15;;;;;;;6.75;2.08;;;15.00;99.90;;;;;;5092067;28;20505;-78
2022/06/26 03:48:40;;;;;;;5.80;2.00;;;15.00;99.90;;;;;;5092438;28;20027;-78
2022/06/26 03:51:07;;;;;;;6.38;2.22;;;15.00;99.90;;;;;;5092332;28;20020;-78
2022/06/26 03:53:34;;;;;;;5.82;1.92;;;15.00;99.90;;;;;;5088848;28;20027;-79
2022/06/26 03:55:59;;;;;;;7.05;2.05;;;15.00;99.90;;;;;;5091985;28;20044;-78
2022/06/26 03:58:25;;;;;;;5.95;1.92;;;14.90;99.90;;;;;;5092042;28;20024;-79
2022/06/26 04:00:52;;;;;;;4.63;1.92;;;14.90;99.90;;;;;;5092103;28;20031;-79
2022/06/26 04:03:18;;;;;;;5.75;2.25;;;14.90;99.90;;;;;;5091718;28;20024;-79
2022/06/26 04:05:44;;;;;;;5.43;1.83;;;14.90;99.90;;;;;;5091969;28;20034;-79
2022/06/26 04:08:09;;;;;;;8.10;2.10;;;14.90;99.90;;;;;;5091852;28;20028;-79
2022/06/26 04:10:36;;;;;;;4.57;1.80;;;14.90;99.90;;;;;;5091889;28;20020;-79
2022/06/26 04:13:08;;;;;;;6.80;2.38;;;14.80;99.90;;;;;;5091795;28;20396;-79
2022/06/26 04:15:35;;;;;;;6.40;2.78;;;14.80;99.90;;;;;;5091678;28;20548;-79
2022/06/26 04:18:02;;;;;;;6.90;2.60;;;14.70;99.90;;;;;;5091799;28;20035;-79
2022/06/26 04:20:28;;;;;;;5.95;2.50;;;14.70;99.90;;;;;;5091647;28;20031;-79
2022/06/26 04:22:59;;;;;;;9.48;2.17;;;14.70;99.90;;;;;;5091687;28;20500;-79
2022/06/26 04:25:25;;;;;;;7.05;2.53;;;14.80;99.90;;;;;;5091253;28;20024;-78
2022/06/26 04:27:51;;;;;;;5.95;2.10;;;14.70;99.90;;;;;;5091651;28;20016;-78
2022/06/26 04:30:17;;;;;;;4.35;1.98;;;14.70;99.90;;;;;;5091399;28;20031;-78
2022/06/26 04:32:43;;;;;;;9.98;2.50;;;14.70;99.90;;;;;;5091573;28;20028;-79
2022/06/26 04:35:10;;;;;;;8.80;2.28;;;14.70;99.90;;;;;;5091485;28;20036;-79
2022/06/26 04:37:37;;;;;;;7.65;2.28;;;14.70;99.90;;;;;;5086201;28;20024;-79
2022/06/26 04:40:04;;;;;;;9.10;2.50;;;14.70;99.90;;;;;;5084690;28;20485;-79
2022/06/26 04:42:30;;;;;;;8.57;2.50;;;14.70;99.90;;;;;;5091295;28;20020;-78
2022/06/26 04:44:56;;;;;;;6.72;2.15;;;14.70;99.90;;;;;;5091101;28;20396;-78
2022/06/26 04:47:22;;;;;;;5.88;2.40;;;14.70;99.90;;;;;;5091193;28;20047;-78
2022/06/26 04:49:47;;;;;;;6.78;2.40;;;14.80;99.90;;;;;;5090239;28;20024;-78
2022/06/26 04:52:14;;;;;;;6.93;2.13;;;14.80;99.90;;;;;;5090082;28;20020;-78
2022/06/26 04:54:40;;;;;;;8.18;2.97;;;14.90;99.90;;;;;;5090756;28;20024;-78
2022/06/26 04:57:06;;;;;;;5.93;2.42;;;14.90;99.90;;;;;;5091193;28;20032;-78
2022/06/26 04:59:32;;;;;;;6.65;2.20;;;14.90;99.90;;;;;;5091074;28;20491;-78
2022/06/26 05:01:57;;;;;;;4.32;2.22;;;15.00;99.90;;;;;;5090636;28;20602;-79
2022/06/26 05:04:23;;;;;;;7.05;2.00;;;15.00;99.90;;;;;;5090697;28;20035;-78
2022/06/26 05:06:48;;;;;;;7.82;2.50;;;15.00;99.90;;;;;;5090677;28;20441;-78
2022/06/26 05:09:14;;;;;;;6.30;2.47;;;15.10;99.90;;;;;;5090570;28;20534;-79
2022/06/26 05:11:41;;;;;;;6.15;2.08;;;15.10;99.90;;;;;;5090890;28;20035;-78
2022/06/26 05:14:07;;;;;;;7.65;2.20;;;15.20;99.90;;;;;;5090771;28;20480;-78
2022/06/26 05:16:33;;;;;;;7.35;3.20;;;15.20;99.90;;;;;;5090790;28;20031;-78
2022/06/26 05:18:58;;;;;;;7.03;2.20;;;15.30;99.90;;;;;;5090802;28;20305;-78
2022/06/26 05:21:24;;;;;;;9.10;2.83;;;15.30;99.90;;;;;;5090591;28;20032;-78
2022/06/26 05:23:50;;;;;;;5.82;2.28;;;15.30;99.90;;;;;;5090460;28;20396;-78
2022/06/26 05:26:16;;;;;;;5.57;2.70;;;15.40;99.90;;;;;;5090418;28;20043;-78
2022/06/26 05:28:41;;;;;;;7.13;2.72;;;15.40;99.90;;;;;;5090415;28;20016;-78
2022/06/26 05:31:07;;;;;;;6.07;2.10;;;15.50;99.90;;;;;;5090340;28;20112;-79
2022/06/26 05:33:33;;;;;;;5.38;2.38;;;15.60;99.90;;;;;;5090680;28;20384;-79
2022/06/26 05:35:58;;;;;;;7.75;2.40;;;15.70;99.90;;;;;;5090574;28;20035;-78
2022/06/26 05:38:24;;;;;;;7.00;2.30;;;15.80;99.90;;;;;;5090368;28;20028;-78
2022/06/26 05:40:50;;;;;;;5.10;2.10;;;15.90;99.90;;;;;;5090460;28;20084;-78
2022/06/26 05:43:15;;;;;;;7.40;2.38;;;16.00;99.90;;;;;;5090416;28;20058;-78
2022/06/26 05:45:41;;;;;;;9.20;2.50;;;16.10;99.90;;;;;;5090139;28;20384;-78
2022/06/26 05:48:07;;;;;;;7.88;2.05;;;16.20;99.90;;;;;;5090020;28;20095;-79
2022/06/26 05:50:33;;;;;;;7.07;2.22;;;16.30;99.90;;;;;;5090232;28;20441;-79
2022/06/26 05:52:59;;;;;;;14.02;2.80;;;16.40;99.90;;;;;;5090179;28;20028;-79
2022/06/26 05:55:24;;;;;;;8.93;2.20;;;16.50;99.90;;;;;;5090008;28;20052;-79
2022/06/26 05:57:50;;;;;;;9.57;1.90;;;16.50;99.90;;;;;;5090520;28;20031;-79
2022/06/26 06:00:16;;;;;;;12.82;2.08;;;16.60;99.90;;;;;;5089997;28;20619;-79
2022/06/26 06:02:42;;;;;;;7.78;2.08;;;16.70;99.90;;;;;;5093765;28;20024;-79
2022/06/26 06:05:08;;;;;;;9.75;2.03;;;16.70;99.90;;;;;;5094577;28;20110;-78
2022/06/26 06:07:36;;;;;;;9.52;2.15;;;16.80;99.90;;;;;;5094647;28;20063;-78
2022/06/26 06:10:03;;;;;;;9.15;1.80;;;16.80;99.90;;;;;;5094083;28;20593;-79
2022/06/26 06:12:29;;;;;;;8.73;2.00;;;16.80;99.90;;;;;;5094220;28;20377;-79
2022/06/26 06:14:54;;;;;;;6.30;2.28;;;16.90;99.90;;;;;;5094131;28;20027;-79
2022/06/26 06:17:35;;;;;;;7.70;2.00;;;16.90;99.90;;;;;;5094108;28;20142;-78
2022/06/26 06:20:06;;;;;;;8.80;2.00;;;17.00;99.90;;;;;;5094113;28;20445;-79
2022/06/26 06:22:32;;;;;;;9.88;1.75;;;17.00;99.90;;;;;;5094030;28;20488;-79
2022/06/26 06:24:57;;;;;;;7.32;2.40;;;17.10;99.90;;;;;;5093971;28;20046;-79
2022/06/26 06:27:23;;;;;;;8.15;1.60;;;17.20;99.90;;;;;;5093691;28;20392;-79
2022/06/26 06:29:49;;;;;;;8.75;2.38;;;17.40;99.90;;;;;;5093666;28;20028;-79
2022/06/26 06:32:14;;;;;;;12.40;2.95;;;17.50;99.90;;;;;;5093594;28;20031;-78
2022/06/26 06:34:40;;;;;;;13.13;2.60;;;17.70;99.90;;;;;;5093736;28;20042;-79
2022/06/26 06:37:06;;;;;;;6.97;1.73;;;17.80;99.90;;;;;;5093836;28;20444;-79
2022/06/26 06:39:32;;;;;;;8.27;1.90;;;17.90;99.90;;;;;;5093954;28;20024;-79
2022/06/26 06:41:58;;;;;;;6.47;1.48;;;18.00;99.90;;;;;;5093848;28;20020;-79
2022/06/26 06:44:23;;;;;;;9.38;1.80;;;18.00;99.90;;;;;;5093502;28;20031;-79
2022/06/26 06:46:49;;;;;;;8.38;2.08;;;18.20;99.90;;;;;;5093366;28;20032;-79
2022/06/26 06:49:14;;;;;;;9.32;1.73;;;18.20;99.90;;;;;;5093252;28;20535;-79
2022/06/26 06:51:40;;;;;;;13.10;1.80;;;18.30;99.90;;;;;;5093464;28;20392;-79
2022/06/26 06:54:06;;;;;;;6.40;1.60;;;18.40;99.90;;;;;;5093342;28;20134;-79
2022/06/26 06:56:32;;;;;;;7.15;1.60;;;18.40;99.90;;;;;;5089818;28;20055;-79
2022/06/26 06:58:58;;;;;;;8.52;1.40;;;18.60;99.90;;;;;;5093409;28;20020;-79
2022/06/26 07:01:24;;;;;;;8.35;1.30;;;18.60;99.90;;;;;;5092820;28;20035;-79
2022/06/26 07:03:49;;;;;;;7.90;1.35;;;18.70;99.90;;;;;;5093357;28;20024;-79
2022/06/26 07:06:15;;;;;;;5.85;1.40;;;18.70;99.90;;;;;;5093022;28;20124;-79
2022/06/26 07:08:41;;;;;;;5.53;1.33;;;18.80;99.90;;;;;;5093028;28;20392;-79
2022/06/26 07:11:07;;;;;;;6.38;1.08;;;18.90;99.90;;;;;;5092951;28;20024;-79
2022/06/26 07:13:32;;;;;;;9.75;1.48;;;19.10;99.90;;;;;;5092080;28;20024;-79
2022/06/26 07:15:58;;;;;;;7.85;1.42;;;19.10;99.90;;;;;;5092875;28;20553;-78
2022/06/26 07:18:24;;;;;;;8.75;1.58;;;19.10;99.90;;;;;;5092938;28;20444;-79
2022/06/26 07:20:50;;;;;;;10.45;1.48;;;19.20;99.90;;;;;;5092985;28;20016;-78
2022/06/26 07:23:16;;;;;;;9.35;1.65;;;19.10;99.90;;;;;;5092984;28;20069;-78
2022/06/26 07:25:42;;;;;;;7.38;1.38;;;19.10;99.90;;;;;;5092583;28;20024;-79
2022/06/26 07:28:08;;;;;;;7.40;1.42;;;19.30;99.90;;;;;;5092786;28;20578;-79
2022/06/26 07:30:34;;;;;;;6.78;1.00;;;19.50;99.90;;;;;;5092201;28;20047;-79
2022/06/26 07:34:12;;;;;;;9.85;1.10;;;19.70;99.90;;;;;;5092480;28;20016;-79
2022/06/26 07:35:55;;;;;;;5.95;1.00;;;19.50;99.90;;;;;;5092400;28;20361;-88
2022/06/26 07:38:20;;;;;;;5.10;1.00;;;19.30;99.90;;;;;;5092608;28;20035;-78
2022/06/26 07:40:46;;;;;;;8.75;1.33;;;19.20;99.90;;;;;;5092612;28;20017;-79
2022/06/26 07:43:12;;;;;;;8.88;1.42;;;19.10;99.90;;;;;;5092350;28;20373;-79
2022/06/26 07:45:37;;;;;;;7.38;1.25;;;19.10;99.90;;;;;;5092229;28;20101;-78
2022/06/26 07:48:03;;;;;;;7.30;1.33;;;19.10;99.90;;;;;;5092236;28;20038;-78
2022/06/26 07:50:29;;;;;;;7.10;1.38;;;19.10;99.90;;;;;;5092281;28;20028;-82
2022/06/26 07:52:55;;;;;;;8.02;1.30;;;19.10;99.90;;;;;;5090803;28;20110;-82
2022/06/26 07:55:21;;;;;;;4.32;1.05;;;19.10;99.90;;;;;;5092081;28;20040;-82
2022/06/26 07:57:46;;;;;;;7.47;1.30;;;19.10;99.90;;;;;;5092610;28;20614;-81
2022/06/26 08:00:12;;;;;;;9.18;1.20;;;19.10;99.90;;;;;;5093420;28;20061;-82
2022/06/26 08:02:39;;;;;;;7.57;1.70;;;19.10;99.90;;;;;;5093642;28;20488;-81
2022/06/26 08:05:06;;;;;;;5.60;1.10;;;19.00;99.90;;;;;;5091575;28;20036;-82
2022/06/26 08:07:32;;;;;;;5.95;1.00;;;19.10;99.90;;;;;;5091483;28;20052;-82
2022/06/26 08:09:58;;;;;;;4.10;1.00;;;19.10;99.90;;;;;;5092639;28;20476;-82
2022/06/26 08:12:23;;;;;;;6.90;1.00;;;19.10;99.90;;;;;;5092602;28;20126;-82
2022/06/26 08:14:49;;;;;;;6.00;1.20;;;19.30;99.90;;;;;;5091401;28;20043;-82
2022/06/26 08:17:15;;;;;;;10.93;1.20;;;19.40;99.90;;;;;;5091404;28;20012;-82
2022/06/26 08:19:40;;;;;;;5.75;1.00;;;19.40;99.90;;;;;;5107255;28;20024;-81
2022/06/26 08:22:06;;;;;;;6.03;1.10;;;19.40;99.90;;;;;;5091304;28;20028;-82
2022/06/26 08:24:33;;;;;;;4.35;1.30;;;19.40;99.90;;;;;;5090872;28;20274;-82
2022/06/26 08:27:00;;;;;;;12.65;1.17;;;19.60;99.90;;;;;;5091406;28;20059;-82
2022/06/26 08:29:26;;;;;;;6.95;1.40;;;19.60;99.90;;;;;;5085153;28;20567;-82
2022/06/26 08:31:52;;;;;;;7.55;1.42;;;19.70;99.90;;;;;;5091387;28;20091;-82
2022/06/26 08:34:18;;;;;;;6.65;1.15;;;19.70;99.90;;;;;;5091433;28;20032;-82
2022/06/26 08:36:43;;;;;;;5.28;1.13;;;19.80;99.90;;;;;;5092073;28;20486;-82
2022/06/26 08:39:09;;;;;;;4.78;1.13;;;19.90;99.90;;;;;;5089720;28;20053;-82
2022/06/26 08:41:45;;;;;;;4.93;1.15;;;19.90;99.90;;;;;;5091274;28;20496;-82
2022/06/26 08:44:11;;;;;;;8.98;2.00;;;19.90;99.90;;;;;;5091294;28;20069;-82
2022/06/26 08:46:45;;;;;;;7.68;1.10;;;19.80;99.90;;;;;;5089602;28;20032;-82
2022/06/26 08:49:15;;;;;;;4.68;1.27;;;19.90;99.90;;;;;;5085138;28;20557;-82
2022/06/26 08:51:43;;;;;;;10.43;1.52;;;20.00;99.90;;;;;;5089671;28;20073;-82
2022/06/26 08:54:10;;;;;;;5.78;1.20;;;19.90;99.90;;;;;;5091260;28;20024;-83
2022/06/26 08:56:43;;;;;;;7.47;1.50;;;19.90;99.90;;;;;;5090847;28;20044;-82
2022/06/26 08:59:11;;;;;;;9.03;1.57;;;19.90;99.90;;;;;;5091213;28;20465;-79
2022/06/26 09:01:37;;;;;;;8.00;2.15;;;20.00;99.90;;;;;;5090852;28;20499;-80
2022/06/26 09:04:04;;;;;;;3.88;1.02;;;20.10;99.90;;;;;;5091478;28;20028;-81
2022/06/26 09:06:31;;;;;;;8.55;1.38;;;20.20;99.90;;;;;;5090671;28;20067;-80
2022/06/26 09:08:57;;;;;;;4.20;0.95;;;20.30;99.90;;;;;;5090908;28;20046;-81
2022/06/26 09:11:23;;;;;;;6.63;1.10;;;20.20;99.90;;;;;;5091132;28;20063;-83
2022/06/26 09:13:52;;;;;;;5.70;1.17;;;20.00;99.90;;;;;;5089921;28;20035;-81
2022/06/26 09:16:31;;;;;;;5.47;1.20;;;19.90;99.90;;;;;;5084211;28;20056;-81
2022/06/26 09:19:09;;;;;;;7.32;1.17;;;19.90;99.90;;;;;;5089969;28;20054;-81
2022/06/26 09:21:35;;;;;;;7.97;1.65;;;20.00;99.90;;;;;;5090509;28;20024;-81
2022/06/26 09:24:01;;;;;;;6.38;1.23;;;20.20;99.90;;;;;;5090349;28;20030;-82
2022/06/26 09:26:27;;;;;;;6.07;0.98;;;20.30;99.90;;;;;;5090549;28;20032;-81
2022/06/26 09:28:53;;;;;;;8.52;1.75;;;20.20;99.90;;;;;;5091001;28;20102;-81
2022/06/26 09:31:21;;;;;;;4.55;1.15;;;20.40;99.90;;;;;;5090247;28;20050;-81
2022/06/26 09:33:46;;;;;;;6.30;1.23;;;20.50;99.90;;;;;;5090719;28;20028;-81
2022/06/26 09:36:17;;;;;;;3.60;1.10;;;20.60;99.90;;;;;;5090237;28;20031;-81
2022/06/26 09:38:50;;;;;;;7.10;1.20;;;20.60;99.90;;;;;;5090316;28;20196;-81
2022/06/26 09:41:27;;;;;;;7.80;1.63;;;20.60;99.90;;;;;;5090206;28;20630;-81
2022/06/26 09:43:55;;;;;;;5.40;1.27;;;20.70;99.90;;;;;;5090334;28;20032;-82
2022/06/26 09:46:29;;;;;;;6.90;1.02;;;20.90;99.90;;;;;;5090062;28;20032;-81
2022/06/26 09:48:57;;;;;;;6.03;1.15;;;21.00;99.90;;;;;;5090498;28;20008;-81
2022/06/26 09:51:23;;;;;;;9.70;1.10;;;21.00;99.90;;;;;;5090219;28;20127;-81
2022/06/26 09:53:50;;;;;;;6.85;1.10;;;20.90;99.90;;;;;;5090320;28;20554;-82
2022/06/26 09:56:17;;;;;;;5.13;1.17;;;20.80;99.90;;;;;;5089929;28;20044;-78
2022/06/26 09:58:43;;;;;;;7.05;1.40;;;20.80;99.90;;;;;;5090260;28;20044;-77
2022/06/26 10:06:43;;;;;;;2.92;0.98;;;20.90;99.90;;;;;;5086356;28;20055;-78
2022/06/26 10:09:10;;;;;;;7.88;1.20;;;20.80;99.90;;;;;;5090070;28;20396;-78
2022/06/26 10:11:38;;;;;;;5.22;1.60;;;20.90;99.90;;;;;;5089986;28;20107;-78
2022/06/26 10:14:15;;;;;;;6.95;1.30;;;21.10;99.90;;;;;;5091687;28;20028;-78
2022/06/26 10:17:09;;;;;;;5.00;1.00;;;21.30;99.40;;;;;;5089369;28;20024;-79
2022/06/26 10:19:55;;;;;;;12.57;1.73;;;21.20;98.70;;;;;;5089546;28;21278;-79
2022/06/26 10:22:21;;;;;;;5.63;1.02;;;21.10;97.80;;;;;;5086885;28;20008;-79
2022/06/26 10:25:00;;;;;;;5.18;0.95;;;21.10;97.30;;;;;;5089964;28;20027;-78
2022/06/26 10:27:31;;;;;;;6.03;1.20;;;20.90;96.20;;;;;;5089348;28;20043;-78
2022/06/26 10:30:06;;;;;;;5.25;1.10;;;21.00;97.50;;;;;;5089908;28;20085;-78
2022/06/26 10:32:32;;;;;;;8.30;1.55;;;21.10;97.40;;;;;;5089629;28;20020;-78
2022/06/26 10:34:58;;;;;;;8.02;5.47;;;21.10;98.20;;;;;;5089716;28;20024;-79
2022/06/26 10:37:24;;;;;;;6.40;1.40;;;21.10;97.70;;;;;;5089393;28;20070;-78
2022/06/26 10:39:52;;;;;;;6.88;1.17;;;21.10;98.20;;;;;;5096757;28;20091;-78
2022/06/26 10:45:14;;;;;;;7.55;1.20;;;21.20;99.10;;;;;;5094203;28;20043;-77
2022/06/26 10:47:46;;;;;;;7.85;1.20;;;21.40;98.80;;;;;;5097791;28;20035;-77
2022/06/26 10:50:24;;;;;;;4.53;1.20;;;21.60;97.90;;;;;;5099506;28;20104;-77
2022/06/26 10:53:12;;;;;;;3.67;1.42;;;21.80;97.30;;;;;;5104379;28;20064;-77
2022/06/26 10:55:39;;;;;;;6.43;1.10;;;22.00;98.40;;;;;;5104161;28;20052;-77
2022/06/26 10:58:05;;;;;;;8.10;1.25;;;22.60;97.80;;;;;;5103943;28;20024;-77
2022/06/26 11:00:31;;;;;;;5.95;1.85;;;22.60;98.20;;;;;;5104623;28;20077;-77
2022/06/26 11:02:57;;;;;;;7.57;1.40;;;22.30;99.30;;;;;;5104336;28;20051;-78
2022/06/26 11:05:22;;;;;;;5.28;1.38;;;22.10;99.50;;;;;;5103323;28;20042;-76
2022/06/26 11:07:51;;;;;;;8.70;1.75;;;22.00;99.40;;;;;;5092850;28;20103;-79
2022/06/26 11:10:27;;;;;;;6.25;1.27;;;22.00;99.90;;;;;;5094875;28;20036;-77
2022/06/26 11:12:53;;;;;;;6.38;1.20;;;21.80;99.90;;;;;;5103343;28;20065;-77
2022/06/26 11:15:24;;;;;;;11.82;1.77;;;21.80;99.90;;;;;;5099851;28;20468;-76
2022/06/26 11:18:01;;;;;;;6.35;0.98;;;22.20;99.90;;;;;;5099145;28;20062;-77
2022/06/26 11:20:52;;;;;;;7.80;1.60;;;21.90;99.70;;;;;;5097378;28;20028;-77
2022/06/26 11:23:19;;;;;;;8.55;1.50;;;21.80;99.90;;;;;;5101720;28;20147;-76
2022/06/26 11:26:05;;;;;;;8.65;1.73;;;22.00;99.90;;;;;;5102818;28;20070;-77
2022/06/26 11:28:32;;;;;;;8.15;2.28;;;21.90;99.90;;;;;;5100594;28;20328;-76
2022/06/26 11:30:59;;;;;;;6.50;2.30;;;22.10;99.90;;;;;;5099677;28;20020;-77
2022/06/26 11:33:30;;;;;;;6.68;2.78;;;22.20;99.90;;;;;;5102796;28;20040;-77
2022/06/26 11:36:07;;;;;;;7.75;2.05;;;22.40;99.90;;;;;;5103833;28;20343;-76
2022/06/26 11:38:34;;;;;;;6.32;1.15;;;22.60;99.90;;;;;;5102405;28;20060;-77
2022/06/26 11:41:02;;;;;;;7.68;1.85;;;23.00;99.40;;;;;;5103787;28;20059;-77
2022/06/26 11:43:28;;;;;;;4.13;1.00;;;23.00;99.10;;;;;;5100556;28;20107;-79
2022/06/26 11:45:56;;;;;;;7.03;1.60;;;23.20;99.00;;;;;;5085726;28;20044;-76
2022/06/26 11:48:22;;;;;;;7.80;1.90;;;23.10;99.30;;;;;;5090123;28;20078;-77
2022/06/26 11:50:53;;;;;;;9.27;1.20;;;23.20;99.90;;;;;;5092116;28;20060;-77
2022/06/26 11:53:21;;;;;;;7.10;1.40;;;23.50;98.80;;;;;;5091000;28;20020;-76
2022/06/26 11:55:50;;;;;;;7.07;1.25;;;23.40;98.10;;;;;;5085708;28;20069;-76
2022/06/26 11:58:17;;;;;;;4.00;1.00;;;23.30;98.40;;;;;;5089780;28;20023;-76
2022/06/26 12:00:44;;;;;;;5.90;1.20;;;23.50;98.70;;;;;;5085285;28;20605;-76
2022/06/26 12:03:12;;;;;;;6.60;1.20;;;23.40;98.40;;;;;;5087486;28;20107;-76
2022/06/26 12:05:41;;;;;;;4.82;1.05;;;23.80;97.90;;;;;;5091563;28;20042;-76
2022/06/26 12:08:17;;;;;;;7.32;1.40;;;23.70;98.70;;;;;;5097007;28;20026;-76
2022/06/26 12:10:48;;;;;;;9.10;1.30;;;23.40;97.80;;;;;;5097613;28;20031;-77
2022/06/26 12:13:26;;;;;;;4.68;1.30;;;23.50;98.00;;;;;;5102487;28;20371;-76
2022/06/26 12:15:53;;;;;;;6.20;1.30;;;23.90;98.30;;;;;;5102338;28;20043;-75
2022/06/26 12:18:19;;;;;;;6.55;1.10;;;24.10;98.20;;;;;;5102877;28;20303;-79
2022/06/26 12:20:49;;;;;;;4.93;1.15;;;24.60;97.50;;;;;;5102865;28;20027;-77
2022/06/26 12:23:15;;;;;;;6.80;1.50;;;24.80;97.60;;;;;;5102934;28;20106;-77
2022/06/26 12:25:44;;;;;;;5.57;1.27;;;24.90;97.10;;;;;;5102997;28;20042;-77
2022/06/26 12:28:23;;;;;;;7.55;1.42;;;24.70;97.10;;;;;;5102719;28;20019;-77
2022/06/26 12:30:49;;;;;;;4.78;1.55;;;24.50;97.50;;;;;;5102667;28;20219;-77
2022/06/26 12:33:15;;;;;;;7.28;1.55;;;24.40;97.40;;;;;;5102878;28;20024;-77
2022/06/26 12:35:41;;;;;;;5.57;1.30;;;23.70;97.60;;;;;;5102636;28;20307;-77
2022/06/26 12:38:07;;;;;;;8.70;1.27;;;23.60;97.60;;;;;;5100099;28;20023;-77
2022/06/26 12:40:34;;;;;;;7.85;1.35;;;23.60;98.20;;;;;;5101648;28;20027;-78
2022/06/26 12:43:00;;;;;;;4.32;0.93;;;23.40;97.80;;;;;;5100056;28;20439;-78
2022/06/26 12:45:26;;;;;;;5.75;1.02;;;23.50;98.00;;;;;;5088642;28;20035;-77
2022/06/26 12:47:52;;;;;;;6.78;1.55;;;23.90;98.10;;;;;;5090737;28;20016;-78
2022/06/26 12:50:18;;;;;;;6.65;1.13;;;24.60;96.70;;;;;;5091314;28;20027;-78
2022/06/26 12:52:44;;;;;;;6.70;1.10;;;25.10;96.60;;;;;;5090924;28;20458;-77
2022/06/26 12:55:10;;;;;;;3.53;0.90;;;25.40;96.00;;;;;;5090974;28;20139;-78
2022/06/26 12:57:36;;;;;;;6.32;1.48;;;25.10;95.50;;;;;;5098741;28;20027;-77
2022/06/26 13:00:06;;;;;;;6.60;1.10;;;25.00;96.20;;;;;;5099779;28;20023;-77